createdAt,value
2022-10-23T00:00:57.177Z,0.00
2022-10-23T00:01:57.120Z,0.00
2022-10-23T00:02:57.183Z,0.00
2022-10-23T00:03:57.126Z,0.00
2022-10-23T00:04:57.080Z,0.00
2022-10-23T00:05:57.128Z,0.00
2022-10-23T00:06:57.130Z,0.00
2022-10-23T00:07:57.101Z,0.00
2022-10-23T00:08:57.041Z,0.00
2022-10-23T00:09:57.058Z,0.00
2022-10-23T00:10:57.021Z,0.00
2022-10-23T00:11:57.086Z,0.00
2022-10-23T00:12:57.020Z,0.00
2022-10-23T00:13:57.011Z,0.00
2022-10-23T00:14:56.977Z,0.00
2022-10-23T00:15:56.999Z,0.00
2022-10-23T00:16:56.959Z,0.00
2022-10-23T00:17:57.053Z,0.00
2022-10-23T00:18:56.946Z,0.00
2022-10-23T00:19:56.991Z,0.00
2022-10-23T00:20:56.930Z,0.00
2022-10-23T00:21:56.931Z,0.00
2022-10-23T00:22:56.900Z,0.00
2022-10-23T00:23:56.996Z,0.00
2022-10-23T00:24:56.887Z,0.00
2022-10-23T00:25:56.894Z,0.00
2022-10-23T00:26:56.917Z,0.00
2022-10-23T00:27:56.881Z,0.00
2022-10-23T00:28:56.846Z,0.00
2022-10-23T00:29:56.895Z,0.00
2022-10-23T00:30:56.854Z,0.00
2022-10-23T00:31:56.815Z,0.00
2022-10-23T00:32:56.804Z,0.00
2022-10-23T00:33:56.846Z,0.00
2022-10-23T00:34:56.784Z,0.00
2022-10-23T00:35:56.783Z,0.00
2022-10-23T00:36:56.823Z,0.00
2022-10-23T00:37:56.756Z,0.00
2022-10-23T00:38:56.735Z,0.00
2022-10-23T00:39:56.737Z,0.00
2022-10-23T00:40:56.723Z,0.00
2022-10-23T00:41:56.727Z,0.00
2022-10-23T00:42:56.764Z,0.00
2022-10-23T00:43:56.686Z,0.00
2022-10-23T00:44:56.684Z,0.00
2022-10-23T00:45:56.682Z,0.00
2022-10-23T00:46:56.654Z,0.00
2022-10-23T00:47:56.664Z,0.00
2022-10-23T00:48:56.803Z,0.00
2022-10-23T00:49:56.629Z,0.00
2022-10-23T00:50:56.629Z,0.00
2022-10-23T00:51:56.665Z,0.00
2022-10-23T00:52:56.597Z,0.00
2022-10-23T00:54:01.415Z,0.00
2022-10-23T00:54:56.588Z,0.00
2022-10-23T00:55:56.574Z,0.00
2022-10-23T00:56:56.552Z,0.00
2022-10-23T00:57:56.605Z,0.00
2022-10-23T00:58:56.538Z,0.00
2022-10-23T00:59:56.551Z,0.00
2022-10-23T01:02:14.582Z,0.00
2022-10-23T01:03:15.299Z,0.00
2022-10-23T01:04:15.226Z,0.00
2022-10-23T01:05:15.295Z,0.00
2022-10-23T01:06:15.307Z,0.00
2022-10-23T01:07:15.217Z,0.00
2022-10-23T01:08:15.197Z,0.00
2022-10-23T01:09:15.261Z,0.00
2022-10-23T01:10:15.242Z,0.00
2022-10-23T01:11:15.189Z,0.00
2022-10-23T01:12:15.159Z,0.00
2022-10-23T01:13:15.217Z,0.00
2022-10-23T01:14:15.161Z,0.00
2022-10-23T01:15:15.154Z,0.00
2022-10-23T01:16:15.130Z,0.00
2022-10-23T01:17:15.179Z,0.00
2022-10-23T01:18:15.099Z,0.00
2022-10-23T01:19:15.150Z,0.00
2022-10-23T01:20:15.097Z,0.00
2022-10-23T01:21:15.113Z,0.00
2022-10-23T01:22:15.194Z,0.00
2022-10-23T01:23:15.086Z,0.00
2022-10-23T01:24:15.104Z,0.00
2022-10-23T01:25:15.062Z,0.00
2022-10-23T01:26:15.099Z,0.00
2022-10-23T01:27:15.018Z,0.00
2022-10-23T01:28:14.996Z,0.00
2022-10-23T01:29:14.992Z,0.00
2022-10-23T01:30:14.983Z,0.00
2022-10-23T01:31:14.983Z,0.00
2022-10-23T01:32:15.052Z,0.00
2022-10-23T01:33:14.965Z,0.00
2022-10-23T01:34:14.969Z,0.00
2022-10-23T01:35:14.976Z,0.00
2022-10-23T01:36:14.934Z,0.00
2022-10-23T01:37:14.913Z,0.00
2022-10-23T01:38:14.922Z,0.00
2022-10-23T01:39:14.953Z,0.00
2022-10-23T01:40:14.967Z,0.00
2022-10-23T01:41:14.874Z,0.00
2022-10-23T01:42:14.864Z,0.00
2022-10-23T01:43:14.924Z,0.00
2022-10-23T01:44:14.854Z,0.00
2022-10-23T01:45:14.923Z,0.00
2022-10-23T01:46:14.846Z,0.00
2022-10-23T01:47:14.952Z,0.00
2022-10-23T01:48:14.811Z,0.00
2022-10-23T01:49:14.812Z,0.00
2022-10-23T01:50:14.882Z,0.00
2022-10-23T01:51:14.772Z,0.00
2022-10-23T01:52:14.805Z,0.00
2022-10-23T01:53:14.772Z,0.00
2022-10-23T01:54:14.750Z,0.00
2022-10-23T01:55:14.773Z,0.00
2022-10-23T01:56:14.791Z,0.00
2022-10-23T01:57:14.726Z,0.00
2022-10-23T01:58:14.743Z,0.00
2022-10-23T01:59:14.769Z,0.00
2022-10-23T02:00:14.745Z,0.00
2022-10-23T02:01:14.881Z,0.00
2022-10-23T02:02:14.708Z,0.00
2022-10-23T02:03:14.665Z,0.00
2022-10-23T02:04:14.732Z,0.00
2022-10-23T02:05:14.634Z,0.00
2022-10-23T02:06:14.683Z,0.00
2022-10-23T02:07:14.688Z,0.00
2022-10-23T02:08:14.668Z,0.00
2022-10-23T02:09:14.618Z,0.00
2022-10-23T02:10:14.668Z,0.00
2022-10-23T02:11:14.577Z,0.00
2022-10-23T02:12:14.624Z,0.00
2022-10-23T02:13:14.637Z,0.00
2022-10-23T02:14:14.569Z,0.00
2022-10-23T02:15:14.526Z,0.00
2022-10-23T02:16:14.573Z,0.00
2022-10-23T02:17:14.670Z,0.00
2022-10-23T02:18:14.559Z,0.00
2022-10-23T02:19:14.592Z,0.00
2022-10-23T02:20:14.481Z,0.00
2022-10-23T02:21:14.480Z,0.00
2022-10-23T02:22:14.493Z,0.00
2022-10-23T02:23:14.483Z,0.00
2022-10-23T02:24:14.527Z,0.00
2022-10-23T02:25:14.486Z,0.00
2022-10-23T02:26:14.576Z,0.00
2022-10-23T02:27:14.409Z,0.00
2022-10-23T02:28:14.554Z,0.00
2022-10-23T02:29:14.567Z,0.00
2022-10-23T02:30:14.487Z,0.00
2022-10-23T02:31:14.373Z,0.00
2022-10-23T02:32:14.456Z,0.00
2022-10-23T02:33:14.595Z,0.00
2022-10-23T02:34:14.450Z,0.00
2022-10-23T02:35:14.452Z,0.00
2022-10-23T02:36:14.459Z,0.00
2022-10-23T02:37:14.395Z,0.00
2022-10-23T02:38:14.451Z,0.00
2022-10-23T02:39:14.305Z,0.00
2022-10-23T02:40:14.308Z,0.00
2022-10-23T02:41:14.323Z,0.00
2022-10-23T02:42:14.273Z,0.00
2022-10-23T02:43:14.271Z,0.00
2022-10-23T02:44:14.289Z,0.00
2022-10-23T02:45:14.368Z,0.00
2022-10-23T02:46:14.221Z,0.00
2022-10-23T02:47:14.258Z,0.00
2022-10-23T02:48:14.244Z,0.00
2022-10-23T02:49:14.284Z,0.00
2022-10-23T02:50:14.199Z,0.00
2022-10-23T02:51:14.240Z,0.00
2022-10-23T02:52:14.176Z,0.00
2022-10-23T02:53:14.149Z,0.00
2022-10-23T02:54:14.155Z,0.00
2022-10-23T02:55:14.191Z,0.00
2022-10-23T02:56:14.138Z,0.00
2022-10-23T02:57:14.173Z,0.00
2022-10-23T02:58:14.180Z,0.00
2022-10-23T02:59:14.103Z,0.00
2022-10-23T03:00:14.163Z,0.00
2022-10-23T03:01:14.422Z,0.00
2022-10-23T03:02:14.147Z,0.00
2022-10-23T03:03:14.049Z,0.00
2022-10-23T03:04:14.168Z,0.00
2022-10-23T03:05:14.046Z,0.00
2022-10-23T03:06:14.120Z,0.00
2022-10-23T03:07:14.067Z,0.00
2022-10-23T03:08:14.050Z,0.00
2022-10-23T03:09:13.995Z,0.00
2022-10-23T03:10:13.990Z,0.00
2022-10-23T03:11:14.059Z,0.00
2022-10-23T03:12:13.971Z,0.00
2022-10-23T03:13:14.045Z,0.00
2022-10-23T03:14:13.955Z,0.00
2022-10-23T03:15:13.932Z,0.00
2022-10-23T03:16:13.939Z,0.00
2022-10-23T03:17:13.986Z,0.00
2022-10-23T03:18:13.953Z,0.00
2022-10-23T03:19:13.972Z,0.00
2022-10-23T03:20:13.895Z,0.00
2022-10-23T03:21:13.873Z,0.00
2022-10-23T03:22:13.952Z,0.00
2022-10-23T03:23:13.905Z,0.00
2022-10-23T03:24:13.844Z,0.00
2022-10-23T03:25:13.883Z,0.00
2022-10-23T03:26:13.900Z,0.00
2022-10-23T03:27:13.813Z,0.00
2022-10-23T03:28:13.860Z,0.00
2022-10-23T03:29:14.070Z,0.00
2022-10-23T03:30:13.867Z,0.00
2022-10-23T03:31:13.784Z,0.00
2022-10-23T03:32:13.841Z,0.00
2022-10-23T03:33:13.809Z,0.00
2022-10-23T03:34:13.756Z,0.00
2022-10-23T03:35:13.735Z,0.00
2022-10-23T03:36:13.773Z,0.00
2022-10-23T03:37:13.722Z,0.00
2022-10-23T03:38:13.767Z,0.00
2022-10-23T03:39:13.773Z,0.00
2022-10-23T03:40:13.701Z,0.00
2022-10-23T03:41:13.665Z,0.00
2022-10-23T03:42:13.732Z,0.00
2022-10-23T03:43:13.699Z,0.00
2022-10-23T03:44:13.647Z,0.00
2022-10-23T03:45:13.711Z,0.00
2022-10-23T03:46:13.634Z,0.00
2022-10-23T03:47:13.629Z,0.00
2022-10-23T03:48:13.622Z,0.00
2022-10-23T03:49:13.633Z,0.00
2022-10-23T03:50:13.673Z,0.00
2022-10-23T03:51:13.654Z,0.00
2022-10-23T03:52:13.589Z,0.00
2022-10-23T03:53:13.556Z,0.00
2022-10-23T03:54:13.615Z,0.00
2022-10-23T03:55:13.591Z,0.00
2022-10-23T03:56:13.535Z,0.00
2022-10-23T03:57:13.526Z,0.00
2022-10-23T03:58:13.541Z,0.00
2022-10-23T03:59:13.568Z,0.00
2022-10-23T04:00:13.486Z,0.00
2022-10-23T04:01:13.573Z,0.00
2022-10-23T04:02:13.611Z,0.00
2022-10-23T04:03:13.480Z,0.00
2022-10-23T04:04:13.443Z,0.00
2022-10-23T04:05:13.596Z,0.00
2022-10-23T04:06:13.439Z,0.00
2022-10-23T04:07:13.505Z,0.00
2022-10-23T04:08:17.601Z,0.00
2022-10-23T04:10:13.381Z,0.00
2022-10-23T04:11:13.413Z,0.00
2022-10-23T04:12:13.394Z,0.00
2022-10-23T04:13:13.424Z,0.00
2022-10-23T04:14:13.610Z,0.00
2022-10-23T04:15:13.335Z,0.00
2022-10-23T04:16:13.333Z,0.00
2022-10-23T04:17:13.416Z,0.00
2022-10-23T04:18:13.320Z,0.00
2022-10-23T04:19:13.325Z,0.00
2022-10-23T04:20:13.354Z,0.00
2022-10-23T04:21:13.340Z,0.00
2022-10-23T04:22:13.310Z,0.00
2022-10-23T04:23:13.267Z,0.00
2022-10-23T04:24:13.317Z,0.00
2022-10-23T04:25:13.236Z,0.00
2022-10-23T04:26:13.230Z,0.00
2022-10-23T04:27:13.263Z,0.00
2022-10-23T04:28:13.218Z,0.00
2022-10-23T04:29:13.245Z,0.00
2022-10-23T04:30:13.282Z,0.00
2022-10-23T04:31:13.190Z,0.00
2022-10-23T04:32:13.191Z,0.00
2022-10-23T04:33:13.266Z,0.00
2022-10-23T04:34:13.207Z,0.00
2022-10-23T04:35:13.152Z,0.00
2022-10-23T04:36:13.148Z,0.00
2022-10-23T04:37:13.182Z,0.00
2022-10-23T04:38:13.221Z,0.00
2022-10-23T04:39:13.107Z,0.00
2022-10-23T04:40:13.095Z,0.00
2022-10-23T04:41:13.127Z,0.00
2022-10-23T04:42:13.131Z,0.00
2022-10-23T04:43:13.130Z,0.00
2022-10-23T04:44:13.073Z,0.00
2022-10-23T04:45:13.158Z,0.00
2022-10-23T04:46:13.027Z,0.00
2022-10-23T04:47:13.016Z,0.00
2022-10-23T04:48:13.131Z,0.00
2022-10-23T04:49:13.048Z,0.00
2022-10-23T04:50:13.024Z,0.00
2022-10-23T04:51:13.055Z,0.00
2022-10-23T04:52:13.038Z,0.00
2022-10-23T04:53:12.961Z,0.00
2022-10-23T04:54:12.975Z,0.00
2022-10-23T04:55:12.945Z,0.00
2022-10-23T04:56:12.933Z,0.00
2022-10-23T04:57:13.020Z,0.00
2022-10-23T04:58:12.936Z,0.00
2022-10-23T04:59:12.905Z,0.00
2022-10-23T05:00:12.912Z,0.00
2022-10-23T05:01:13.011Z,0.00
2022-10-23T05:02:12.868Z,0.00
2022-10-23T05:03:12.936Z,0.00
2022-10-23T05:04:12.843Z,0.00
2022-10-23T05:05:12.891Z,0.00
2022-10-23T05:06:12.863Z,0.00
2022-10-23T05:07:12.911Z,0.00
2022-10-23T05:08:15.595Z,0.00
2022-10-23T05:09:12.911Z,0.00
2022-10-23T05:10:12.803Z,0.00
2022-10-23T05:11:12.918Z,0.00
2022-10-23T05:12:12.741Z,1.00
2022-10-23T05:13:12.782Z,0.00
2022-10-23T05:14:12.805Z,0.00
2022-10-23T05:15:12.757Z,0.00
2022-10-23T05:16:12.748Z,0.00
2022-10-23T05:17:12.735Z,0.00
2022-10-23T05:18:12.815Z,0.00
2022-10-23T05:19:12.694Z,0.00
2022-10-23T05:20:12.704Z,1.00
2022-10-23T05:21:12.705Z,0.00
2022-10-23T05:22:12.713Z,3.00
2022-10-23T05:23:12.606Z,2.00
2022-10-23T05:24:12.673Z,1.00
2022-10-23T05:25:12.661Z,2.00
2022-10-23T05:26:12.617Z,1.00
2022-10-23T05:27:12.594Z,2.00
2022-10-23T05:28:12.615Z,2.00
2022-10-23T05:29:12.578Z,2.00
2022-10-23T05:30:12.542Z,4.00
2022-10-23T05:31:12.546Z,4.00
2022-10-23T05:32:12.560Z,5.00
2022-10-23T05:33:12.675Z,6.00
2022-10-23T05:34:13.481Z,8.00
2022-10-23T05:35:12.573Z,10.00
2022-10-23T05:36:12.510Z,15.00
2022-10-23T05:37:12.611Z,21.00
2022-10-23T05:38:12.462Z,28.00
2022-10-23T05:39:12.442Z,33.00
2022-10-23T05:40:12.438Z,38.00
2022-10-23T05:41:12.753Z,41.00
2022-10-23T05:42:12.420Z,44.00
2022-10-23T05:43:12.484Z,46.00
2022-10-23T05:44:12.407Z,47.00
2022-10-23T05:45:12.409Z,54.00
2022-10-23T05:46:12.427Z,89.00
2022-10-23T05:47:12.378Z,132.00
2022-10-23T05:48:29.786Z,131.00
2022-10-23T05:49:12.363Z,134.00
2022-10-23T05:50:12.356Z,150.00
2022-10-23T05:51:12.355Z,174.00
2022-10-23T05:52:12.397Z,199.00
2022-10-23T05:53:12.420Z,213.00
2022-10-23T05:54:12.363Z,222.00
2022-10-23T05:55:12.303Z,235.00
2022-10-23T05:56:12.302Z,266.00
2022-10-23T05:57:12.390Z,280.00
2022-10-23T05:58:12.333Z,309.00
2022-10-23T05:59:12.257Z,352.00
2022-10-23T06:00:12.261Z,383.00
2022-10-23T06:01:12.324Z,395.00
2022-10-23T06:02:12.351Z,447.00
2022-10-23T06:03:12.251Z,502.00
2022-10-23T06:04:12.195Z,534.00
2022-10-23T06:05:12.254Z,616.00
2022-10-23T06:06:12.406Z,642.00
2022-10-23T06:07:12.189Z,674.00
2022-10-23T06:08:12.283Z,719.00
2022-10-23T06:09:12.172Z,834.00
2022-10-23T06:10:12.194Z,951.00
2022-10-23T06:11:12.146Z,925.00
2022-10-23T06:12:12.144Z,1017.00
2022-10-23T06:13:12.141Z,1103.00
2022-10-23T06:14:12.141Z,1190.00
2022-10-23T06:15:12.086Z,1304.00
2022-10-23T06:16:12.146Z,1387.00
2022-10-23T06:17:12.118Z,1358.00
2022-10-23T06:18:12.151Z,1556.00
2022-10-23T06:19:12.052Z,1661.00
2022-10-23T06:20:12.033Z,1695.00
2022-10-23T06:21:12.049Z,1738.00
2022-10-23T06:22:12.132Z,1776.00
2022-10-23T06:23:12.013Z,1995.00
2022-10-23T06:24:12.074Z,2034.00
2022-10-23T06:25:11.990Z,2184.00
2022-10-23T06:26:12.037Z,2090.00
2022-10-23T06:27:12.046Z,2326.00
2022-10-23T06:28:13.357Z,2334.00
2022-10-23T06:29:12.011Z,2485.00
2022-10-23T06:30:11.944Z,2875.00
2022-10-23T06:31:12.006Z,2850.00
2022-10-23T06:32:11.932Z,3010.00
2022-10-23T06:33:12.034Z,3315.00
2022-10-23T06:34:11.985Z,3423.00
2022-10-23T06:35:11.964Z,3399.00
2022-10-23T06:36:11.906Z,3584.00
2022-10-23T06:37:11.887Z,3639.00
2022-10-23T06:38:11.889Z,3826.00
2022-10-23T06:39:11.901Z,3718.00
2022-10-23T06:40:11.926Z,4328.00
2022-10-23T06:41:11.878Z,3887.00
2022-10-23T06:42:11.860Z,3989.00
2022-10-23T06:43:11.841Z,4098.00
2022-10-23T06:44:11.819Z,4032.00
2022-10-23T06:45:11.852Z,4393.00
2022-10-23T06:46:11.806Z,4243.00
2022-10-23T06:47:11.783Z,4531.00
2022-10-23T06:48:11.820Z,4133.00
2022-10-23T06:49:11.766Z,4551.00
2022-10-23T06:50:14.597Z,4339.00
2022-10-23T06:51:11.788Z,4155.00
2022-10-23T06:52:18.530Z,4434.00
2022-10-23T06:53:11.746Z,4309.00
2022-10-23T06:54:11.706Z,4788.00
2022-10-23T06:55:11.693Z,4682.00
2022-10-23T06:56:11.675Z,4685.00
2022-10-23T06:57:11.782Z,5826.00
2022-10-23T06:58:11.669Z,4894.00
2022-10-23T06:59:11.669Z,4766.00
2022-10-23T07:00:11.640Z,6004.00
2022-10-23T07:01:11.806Z,5816.00
2022-10-23T07:02:11.614Z,5920.00
2022-10-23T07:03:11.663Z,5816.00
2022-10-23T07:04:11.651Z,5697.00
2022-10-23T07:05:13.650Z,4985.00
2022-10-23T07:06:11.600Z,7343.00
2022-10-23T07:07:11.691Z,5887.00
2022-10-23T07:08:11.604Z,7031.00
2022-10-23T07:09:11.546Z,5864.00
2022-10-23T07:10:11.558Z,6080.00
2022-10-23T07:11:11.568Z,5723.00
2022-10-23T07:12:11.522Z,5925.00
2022-10-23T07:13:11.580Z,5391.00
2022-10-23T07:14:11.552Z,5707.00
2022-10-23T07:15:11.496Z,6257.00
2022-10-23T07:16:11.494Z,6513.00
2022-10-23T07:17:11.583Z,5554.00
2022-10-23T07:18:11.462Z,5451.00
2022-10-23T07:19:11.527Z,5463.00
2022-10-23T07:20:11.438Z,4800.00
2022-10-23T07:21:11.465Z,7459.00
2022-10-23T07:22:14.886Z,6945.00
2022-10-23T07:23:11.465Z,6283.00
2022-10-23T07:24:11.511Z,6747.00
2022-10-23T07:25:11.450Z,8348.00
2022-10-23T07:26:11.409Z,6969.00
2022-10-23T07:27:11.457Z,6149.00
2022-10-23T07:28:11.433Z,8320.00
2022-10-23T07:29:11.365Z,7322.00
2022-10-23T07:30:11.369Z,7722.00
2022-10-23T07:31:11.359Z,7435.00
2022-10-23T07:32:11.358Z,7297.00
2022-10-23T07:33:11.375Z,6309.00
2022-10-23T07:34:11.321Z,6107.00
2022-10-23T07:35:11.362Z,7039.00
2022-10-23T07:36:11.366Z,6901.00
2022-10-23T07:37:11.272Z,6430.00
2022-10-23T07:38:11.340Z,5666.00
2022-10-23T07:39:11.316Z,6353.00
2022-10-23T07:40:11.242Z,7159.00
2022-10-23T07:41:11.586Z,6315.00
2022-10-23T07:42:11.312Z,6094.00
2022-10-23T07:43:11.259Z,7044.00
2022-10-23T07:44:11.249Z,5658.00
2022-10-23T07:45:11.269Z,8475.00
2022-10-23T07:46:11.291Z,11011.00
2022-10-23T07:47:11.233Z,9389.00
2022-10-23T07:48:11.153Z,9630.00
2022-10-23T07:49:11.143Z,8022.00
2022-10-23T07:50:11.136Z,7292.00
2022-10-23T07:51:11.194Z,6918.00
2022-10-23T07:52:11.186Z,7447.00
2022-10-23T07:53:11.230Z,7361.00
2022-10-23T07:54:11.097Z,6703.00
2022-10-23T07:55:11.139Z,7205.00
2022-10-23T07:56:11.136Z,8045.00
2022-10-23T07:57:11.071Z,8502.00
2022-10-23T07:58:11.075Z,7971.00
2022-10-23T07:59:11.047Z,8571.00
2022-10-23T08:00:11.150Z,9489.00
2022-10-23T08:01:11.098Z,9351.00
2022-10-23T08:02:11.064Z,11755.00
2022-10-23T08:03:11.010Z,8481.00
2022-10-23T08:04:11.012Z,7285.00
2022-10-23T08:05:11.045Z,10201.00
2022-10-23T08:06:11.025Z,8938.00
2022-10-23T08:07:11.191Z,8096.00
2022-10-23T08:08:10.978Z,9373.00
2022-10-23T08:09:10.944Z,8203.00
2022-10-23T08:10:11.014Z,6282.00
2022-10-23T08:11:10.952Z,6108.00
2022-10-23T08:12:10.957Z,5998.00
2022-10-23T08:13:11.315Z,7337.00
2022-10-23T08:14:10.913Z,8039.00
2022-10-23T08:15:10.945Z,8019.00
2022-10-23T08:16:10.969Z,8594.00
2022-10-23T08:17:10.882Z,8842.00
2022-10-23T08:18:10.902Z,8156.00
2022-10-23T08:19:10.914Z,7283.00
2022-10-23T08:20:10.852Z,7149.00
2022-10-23T08:21:10.840Z,7558.00
2022-10-23T08:22:10.889Z,7956.00
2022-10-23T08:23:10.836Z,8647.00
2022-10-23T08:24:10.808Z,8973.00
2022-10-23T08:25:10.837Z,9071.00
2022-10-23T08:26:10.786Z,8947.00
2022-10-23T08:27:10.843Z,8229.00
2022-10-23T08:28:10.807Z,9506.00
2022-10-23T08:29:10.788Z,12181.00
2022-10-23T08:30:10.737Z,10787.00
2022-10-23T08:31:10.720Z,7973.00
2022-10-23T08:32:10.781Z,8036.00
2022-10-23T08:33:10.750Z,8783.00
2022-10-23T08:34:10.723Z,13006.00
2022-10-23T08:35:10.691Z,10617.00
2022-10-23T08:36:10.707Z,11200.00
2022-10-23T08:37:10.715Z,15054.00
2022-10-23T08:38:10.701Z,17351.00
2022-10-23T08:39:10.672Z,16988.00
2022-10-23T08:40:10.809Z,13511.00
2022-10-23T08:41:10.796Z,8111.00
2022-10-23T08:43:09.607Z,10474.00
2022-10-23T08:44:10.653Z,11846.00
2022-10-23T08:45:10.634Z,10174.00
2022-10-23T08:46:10.644Z,12422.00
2022-10-23T08:47:10.644Z,15174.00
2022-10-23T08:48:10.622Z,14375.00
2022-10-23T08:49:10.603Z,19547.00
2022-10-23T08:50:10.594Z,15130.00
2022-10-23T08:51:10.527Z,14706.00
2022-10-23T08:52:13.264Z,15687.00
2022-10-23T08:53:10.570Z,15606.00
2022-10-23T08:54:10.516Z,16889.00
2022-10-23T08:55:10.494Z,17194.00
2022-10-23T08:56:10.538Z,16496.00
2022-10-23T08:57:10.482Z,17545.00
2022-10-23T08:58:10.451Z,19862.00
2022-10-23T08:59:10.509Z,15495.00
2022-10-23T09:00:10.426Z,15458.00
2022-10-23T09:01:10.614Z,18819.00
2022-10-23T09:02:10.677Z,16651.00
2022-10-23T09:03:10.440Z,18182.00
2022-10-23T09:04:10.496Z,17729.00
2022-10-23T09:05:10.395Z,16412.00
2022-10-23T09:06:10.405Z,13784.00
2022-10-23T09:07:10.420Z,13929.00
2022-10-23T09:08:10.545Z,14080.00
2022-10-23T09:09:10.437Z,13520.00
2022-10-23T09:10:10.450Z,12060.00
2022-10-23T09:11:10.381Z,15438.00
2022-10-23T09:12:10.449Z,15453.00
2022-10-23T09:13:10.295Z,18181.00
2022-10-23T09:14:10.301Z,15093.00
2022-10-23T09:15:10.289Z,14805.00
2022-10-23T09:16:10.386Z,13542.00
2022-10-23T09:17:10.329Z,14958.00
2022-10-23T09:18:10.253Z,12577.00
2022-10-23T09:19:12.136Z,14009.00
2022-10-23T09:20:10.235Z,29203.00
2022-10-23T09:21:10.263Z,32576.00
2022-10-23T09:22:10.234Z,24246.00
2022-10-23T09:23:10.253Z,58263.00
2022-10-23T09:24:10.241Z,12240.00
2022-10-23T09:25:10.380Z,10112.00
2022-10-23T09:26:10.182Z,9358.00
2022-10-23T09:27:10.190Z,11164.00
2022-10-23T09:28:10.192Z,10274.00
2022-10-23T09:29:10.163Z,10038.00
2022-10-23T09:30:10.152Z,9594.00
2022-10-23T09:31:10.191Z,10327.00
2022-10-23T09:32:10.112Z,13908.00
2022-10-23T09:33:10.265Z,15810.00
2022-10-23T09:34:11.821Z,19890.00
2022-10-23T09:35:10.137Z,15792.00
2022-10-23T09:36:10.071Z,18273.00
2022-10-23T09:37:10.087Z,5846.00
2022-10-23T09:38:10.112Z,19717.00
2022-10-23T09:39:10.061Z,18399.00
2022-10-23T09:40:10.047Z,75774.00
2022-10-23T09:41:10.035Z,73788.00
2022-10-23T09:42:10.031Z,78650.00
2022-10-23T09:43:10.010Z,77386.00
2022-10-23T09:44:10.085Z,70877.00
2022-10-23T09:45:10.029Z,67939.00
2022-10-23T09:46:09.981Z,42356.00
2022-10-23T09:47:09.963Z,39902.00
2022-10-23T09:48:09.996Z,34805.00
2022-10-23T09:49:09.948Z,37646.00
2022-10-23T09:50:09.984Z,26440.00
2022-10-23T09:51:09.931Z,72868.00
2022-10-23T09:52:09.913Z,71324.00
2022-10-23T09:53:09.904Z,70321.00
2022-10-23T09:54:09.884Z,69671.00
2022-10-23T09:55:09.963Z,41452.00
2022-10-23T09:56:09.989Z,40044.00
2022-10-23T09:57:09.899Z,39973.00
2022-10-23T09:58:09.879Z,41471.00
2022-10-23T09:59:09.909Z,38737.00
2022-10-23T10:00:09.847Z,38846.00
2022-10-23T10:01:10.076Z,39183.00
2022-10-23T10:02:10.092Z,34701.00
2022-10-23T10:03:09.804Z,69958.00
2022-10-23T10:04:09.799Z,70185.00
2022-10-23T10:05:09.789Z,69261.00
2022-10-23T10:06:09.810Z,40126.00
2022-10-23T10:07:09.820Z,41726.00
2022-10-23T10:08:09.799Z,37497.00
2022-10-23T10:09:09.823Z,36020.00
2022-10-23T10:10:09.776Z,42624.00
2022-10-23T10:11:09.789Z,38147.00
2022-10-23T10:12:09.775Z,31639.00
2022-10-23T10:13:14.199Z,38831.00
2022-10-23T10:14:09.774Z,38122.00
2022-10-23T10:15:09.682Z,36114.00
2022-10-23T10:16:09.772Z,30930.00
2022-10-23T10:17:09.675Z,33677.00
2022-10-23T10:18:09.680Z,37546.00
2022-10-23T10:19:09.763Z,31506.00
2022-10-23T10:20:09.701Z,38976.00
2022-10-23T10:21:09.656Z,34287.00
2022-10-23T10:22:09.614Z,33265.00
2022-10-23T10:23:09.686Z,34178.00
2022-10-23T10:24:09.625Z,42647.00
2022-10-23T10:25:09.595Z,35428.00
2022-10-23T10:26:09.647Z,41154.00
2022-10-23T10:27:09.611Z,36728.00
2022-10-23T10:28:09.615Z,34412.00
2022-10-23T10:29:09.603Z,32041.00
2022-10-23T10:30:09.598Z,34050.00
2022-10-23T10:31:09.578Z,29054.00
2022-10-23T10:32:09.582Z,27324.00
2022-10-23T10:33:09.535Z,34917.00
2022-10-23T10:34:09.582Z,34072.00
2022-10-23T10:35:09.622Z,27119.00
2022-10-23T10:36:09.518Z,29556.00
2022-10-23T10:37:09.530Z,30966.00
2022-10-23T10:38:09.470Z,26447.00
2022-10-23T10:39:09.468Z,29944.00
2022-10-23T10:40:09.517Z,30762.00
2022-10-23T10:41:09.444Z,27644.00
2022-10-23T10:42:09.430Z,29665.00
2022-10-23T10:43:09.454Z,26321.00
2022-10-23T10:44:09.437Z,26723.00
2022-10-23T10:45:09.410Z,25022.00
2022-10-23T10:46:09.411Z,25261.00
2022-10-23T10:47:09.502Z,26244.00
2022-10-23T10:48:09.365Z,28495.00
2022-10-23T10:49:09.419Z,38288.00
2022-10-23T10:50:09.412Z,33193.00
2022-10-23T10:51:09.332Z,35156.00
2022-10-23T10:52:09.333Z,28375.00
2022-10-23T10:53:09.357Z,66633.00
2022-10-23T10:54:09.482Z,32178.00
2022-10-23T10:55:09.287Z,27487.00
2022-10-23T10:57:08.315Z,34742.00
2022-10-23T10:58:09.262Z,23309.00
2022-10-23T10:59:09.269Z,26096.00
2022-10-23T11:00:09.297Z,71526.00
2022-10-23T11:01:09.424Z,69360.00
2022-10-23T11:02:09.495Z,35361.00
2022-10-23T11:03:09.233Z,24941.00
2022-10-23T11:04:09.224Z,21630.00
2022-10-23T11:05:09.194Z,16607.00
2022-10-23T11:06:09.190Z,17746.00
2022-10-23T11:07:09.276Z,21414.00
2022-10-23T11:08:09.249Z,17975.00
2022-10-23T11:09:20.142Z,15571.00
2022-10-23T11:10:09.256Z,20804.00
2022-10-23T11:11:09.141Z,19647.00
2022-10-23T11:12:09.172Z,19344.00
2022-10-23T11:13:09.201Z,18357.00
2022-10-23T11:14:09.152Z,17529.00
2022-10-23T11:15:09.141Z,18011.00
2022-10-23T11:16:09.102Z,16750.00
2022-10-23T11:17:09.072Z,18964.00
2022-10-23T11:18:09.082Z,20357.00
2022-10-23T11:19:13.008Z,17955.00
2022-10-23T11:20:09.055Z,20006.00
2022-10-23T11:21:09.154Z,31308.00
2022-10-23T11:22:09.071Z,25316.00
2022-10-23T11:23:09.128Z,19088.00
2022-10-23T11:25:08.049Z,20739.00
2022-10-23T11:26:09.020Z,18173.00
2022-10-23T11:27:08.980Z,16753.00
2022-10-23T11:28:10.703Z,15226.00
2022-10-23T11:29:08.972Z,14332.00
2022-10-23T11:30:09.010Z,14015.00
2022-10-23T11:31:11.978Z,14207.00
2022-10-23T11:32:09.002Z,14243.00
2022-10-23T11:33:09.000Z,13665.00
2022-10-23T11:34:08.985Z,12441.00
2022-10-23T11:35:08.997Z,10954.00
2022-10-23T11:36:08.930Z,9628.00
2022-10-23T11:37:08.874Z,8800.00
2022-10-23T11:38:09.046Z,8154.00
2022-10-23T11:39:08.912Z,8131.00
2022-10-23T11:40:08.862Z,8677.00
2022-10-23T11:41:08.833Z,10766.00
2022-10-23T11:42:08.890Z,12735.00
2022-10-23T11:43:08.841Z,13756.00
2022-10-23T11:44:08.805Z,13894.00
2022-10-23T11:45:08.813Z,13076.00
2022-10-23T11:46:08.803Z,12058.00
2022-10-23T11:47:08.802Z,10939.00
2022-10-23T11:48:08.827Z,10038.00
2022-10-23T11:49:08.794Z,9784.00
2022-10-23T11:50:08.754Z,9757.00
2022-10-23T11:51:08.782Z,9798.00
2022-10-23T11:52:08.731Z,10328.00
2022-10-23T11:53:16.509Z,10897.00
2022-10-23T11:54:08.834Z,11000.00
2022-10-23T11:55:08.710Z,10980.00
2022-10-23T11:56:08.692Z,10765.00
2022-10-23T11:57:10.520Z,10903.00
2022-10-23T11:58:08.667Z,11300.00
2022-10-23T11:59:08.781Z,11622.00
2022-10-23T12:00:08.682Z,12029.00
2022-10-23T12:01:08.801Z,12540.00
2022-10-23T12:02:08.700Z,12955.00
2022-10-23T12:03:08.618Z,13353.00
2022-10-23T12:04:08.658Z,14248.00
2022-10-23T12:05:08.701Z,14341.00
2022-10-23T12:06:08.611Z,14473.00
2022-10-23T12:07:07.602Z,15103.00
2022-10-23T12:08:08.615Z,16590.00
2022-10-23T12:09:08.625Z,16934.00
2022-10-23T12:10:08.629Z,16582.00
2022-10-23T12:11:08.531Z,18946.00
2022-10-23T12:12:08.597Z,20250.00
2022-10-23T12:13:08.555Z,19830.00
2022-10-23T12:14:08.559Z,20218.00
2022-10-23T12:15:09.594Z,21945.00
2022-10-23T12:16:08.501Z,20237.00
2022-10-23T12:17:08.508Z,21537.00
2022-10-23T12:18:08.579Z,23626.00
2022-10-23T12:19:08.511Z,22864.00
2022-10-23T12:20:08.460Z,20006.00
2022-10-23T12:21:08.894Z,27838.00
2022-10-23T12:22:08.636Z,21690.00
2022-10-23T12:23:08.416Z,25629.00
2022-10-23T12:24:08.456Z,18974.00
2022-10-23T12:25:08.409Z,27975.00
2022-10-23T12:26:08.437Z,23082.00
2022-10-23T12:27:08.458Z,29111.00
2022-10-23T12:28:08.382Z,25078.00
2022-10-23T12:29:08.448Z,30003.00
2022-10-23T12:30:08.358Z,29460.00
2022-10-23T12:31:08.383Z,32503.00
2022-10-23T12:32:08.329Z,22446.00
2022-10-23T12:33:08.362Z,71358.00
2022-10-23T12:34:08.318Z,73099.00
2022-10-23T12:35:08.568Z,73123.00
2022-10-23T12:36:08.310Z,72642.00